Algonac, Michigan
Current Conditions -  °F | °C
As of 12:55 PM on Thursday 23 Oct 2014 (Local Time) from KMTC Reporting Station
Few Clouds Few Clouds  
Wind Chill: 12°   Ceiling: Unl
Heat Index: 12°   Visibility: 12mi
Dew Point:   Wind: 3mph
Humidity: 54%   Direction: 310°NW
Pressure: 30.19"   Gusts: NA
Location:  42.62°N, 82.53°W
Report Text: KMTC 231655Z 31003KT 12SM FEW220 12/03 A3019 RMK SLP234 T01240032
Loading
Personal Weather Stations






























Interactive Weather Map
Tropical Storm Tracking
New forecast layout! Learn more

10-Day Weather Forecast

Advertisements
Track Severe Weather on mobile